Time;durP1;ratioP1;P1;durP2;ratioP2;P2;SDS_P1;SDS_P2;PMS_P1;PMS_P2;Temp;Humidity;BMP_temperature;BMP_pressure;BME280_temperature;BME280_humidity;BME280_pressure;Samples;Min_cycle;Max_cycle;Signal;HPM_P1;HPM_P2
2023/06/08 00:07:40;;;;;;;10.40;6.40;;;;;;;15.75;66.35;99576.80;436541;1253;139160;-61
2023/06/08 00:17:46;;;;;;;9.90;7.50;;;;;;;15.62;66.99;99580.35;436723;1251;141784;-61
2023/06/08 00:27:52;;;;;;;8.20;7.30;;;;;;;15.49;67.65;99582.30;436711;1253;139454;-60
2023/06/08 00:37:58;;;;;;;7.30;6.60;;;;;;;15.34;68.22;99578.13;436617;1251;140008;-63
2023/06/08 00:48:05;;;;;;;10.00;7.40;;;;;;;15.17;68.97;99586.21;436653;1251;139809;-61
2023/06/08 00:58:13;;;;;;;8.20;7.40;;;;;;;14.99;69.70;99589.60;436802;1251;139711;-60
2023/06/08 01:08:38;;;;;;;8.40;7.20;;;;;;;14.84;70.36;99590.00;436726;1251;140380;-60
2023/06/08 01:18:47;;;;;;;7.30;6.20;;;;;;;14.68;70.92;99588.40;436898;1250;141904;-62
2023/06/08 01:28:55;;;;;;;8.30;7.50;;;;;;;14.48;71.37;99590.66;437011;1253;139725;-60
2023/06/08 01:39:11;;;;;;;8.90;8.00;;;;;;;14.31;71.90;99591.48;437108;1253;139703;-61
2023/06/08 01:49:17;;;;;;;7.10;6.50;;;;;;;14.21;72.67;99586.36;436913;1251;140417;-61
2023/06/08 01:59:22;;;;;;;10.00;9.20;;;;;;;14.15;73.31;99591.55;436423;1251;141375;-61
2023/06/08 02:09:28;;;;;;;9.30;7.80;;;;;;;14.11;73.90;99588.19;436486;1253;140049;-62
2023/06/08 02:19:34;;;;;;;9.20;8.40;;;;;;;14.02;74.11;99586.55;436600;1251;139150;-61
2023/06/08 02:29:42;;;;;;;9.20;7.40;;;;;;;13.95;74.56;99582.51;436648;1251;140143;-61
2023/06/08 02:39:47;;;;;;;9.10;7.80;;;;;;;13.93;74.35;99586.91;437022;1253;140719;-60
2023/06/08 02:49:53;;;;;;;8.70;7.10;;;;;;;13.94;74.24;99596.17;436628;1253;140066;-60
2023/06/08 02:59:59;;;;;;;9.70;8.00;;;;;;;14.43;75.14;99591.61;436401;1253;142472;-60
2023/06/08 03:10:05;;;;;;;10.60;9.40;;;;;;;16.07;74.40;99594.24;436762;1251;141152;-62
2023/06/08 03:20:13;;;;;;;9.20;7.90;;;;;;;18.36;70.27;99601.88;437001;1252;140843;-58
2023/06/08 03:30:18;;;;;;;9.20;8.20;;;;;;;19.07;66.85;99604.81;437378;1251;140633;-60
2023/06/08 03:40:24;;;;;;;14.50;7.90;;;;;;;19.21;65.00;99602.38;436815;1253;139557;-62
2023/06/08 03:50:30;;;;;;;8.80;7.60;;;;;;;18.68;64.32;99613.23;436461;1251;141028;-61
2023/06/08 04:00:36;;;;;;;8.60;7.70;;;;;;;20.80;64.36;99605.60;436460;1251;139219;-61
2023/06/08 04:10:42;;;;;;;7.80;7.00;;;;;;;26.61;56.32;99599.23;436554;1251;139287;-62
2023/06/08 04:20:47;;;;;;;6.40;5.80;;;;;;;31.47;47.49;99594.48;436440;1251;140117;-61
2023/06/08 04:30:53;;;;;;;6.50;5.50;;;;;;;34.77;40.20;99599.75;436240;1251;139966;-61
2023/06/08 04:41:01;;;;;;;4.70;4.00;;;;;;;36.72;35.13;99604.77;436713;1251;138674;-61
2023/06/08 04:51:09;;;;;;;4.40;4.00;;;;;;;38.53;30.75;99600.98;436779;1253;138400;-61
2023/06/08 05:01:15;;;;;;;3.90;3.50;;;;;;;40.49;27.81;99599.75;436620;1253;139313;-62
2023/06/08 05:11:22;;;;;;;3.50;3.20;;;;;;;42.65;24.73;99596.91;436590;1253;138703;-62
2023/06/08 05:21:28;;;;;;;2.80;2.60;;;;;;;44.35;22.52;99595.85;436665;1253;138978;-62
2023/06/08 05:31:34;;;;;;;2.50;2.40;;;;;;;46.48;20.47;99596.59;436721;1251;139107;-61
2023/06/08 05:41:40;;;;;;;1.90;1.80;;;;;;;48.06;18.63;99595.48;436411;1251;139362;-61
2023/06/08 05:51:46;;;;;;;4.70;2.30;;;;;;;48.62;16.80;99589.10;436534;1253;139562;-62
2023/06/08 06:01:52;;;;;;;2.20;2.10;;;;;;;48.39;15.88;99590.06;436323;1253;141955;-60
2023/06/08 06:11:59;;;;;;;2.50;2.20;;;;;;;48.80;15.00;99592.95;436323;1253;139401;-61
2023/06/08 06:22:06;;;;;;;2.40;2.20;;;;;;;49.48;14.87;99595.39;436742;1251;139038;-62
2023/06/08 06:32:12;;;;;;;2.60;2.40;;;;;;;50.22;14.36;99596.88;436704;1253;139109;-61
2023/06/08 06:42:18;;;;;;;3.00;2.70;;;;;;;50.55;13.67;99593.83;436293;1251;138971;-61
2023/06/08 06:52:24;;;;;;;3.30;3.00;;;;;;;50.73;13.61;99597.06;436495;1253;138318;-60
2023/06/08 07:02:29;;;;;;;3.20;2.90;;;;;;;50.53;13.37;99595.30;436464;1253;139317;-61
2023/06/08 07:12:34;;;;;;;;;;;;;;;51.20;13.10;99594.20;436748;1251;138524;-62
2023/06/08 07:22:40;;;;;;;5.60;5.10;;;;;;;51.80;12.84;99592.48;436556;1251;262595;-61
2023/06/08 07:33:07;;;;;;;4.70;4.40;;;;;;;51.85;12.60;99592.80;436752;1253;140938;-64
2023/06/08 07:43:13;;;;;;;3.20;2.90;;;;;;;51.83;12.81;99594.29;437172;1251;139120;-63
2023/06/08 07:53:22;;;;;;;2.80;2.10;;;;;;;49.34;13.19;99591.61;436246;1253;138615;-62
2023/06/08 08:03:28;;;;;;;3.10;2.50;;;;;;;40.92;16.84;99583.21;436538;1251;138386;-62
2023/06/08 08:13:34;;;;;;;3.00;2.20;;;;;;;35.11;20.84;99583.35;436578;1253;139361;-62
2023/06/08 08:23:40;;;;;;;5.50;2.40;;;;;;;31.92;24.31;99586.59;436229;1253;138971;-61
2023/06/08 08:33:46;;;;;;;5.80;2.70;;;;;;;30.77;26.24;99594.07;436165;1254;138594;-61
2023/06/08 08:43:58;;;;;;;3.20;2.30;;;;;;;29.91;27.42;99589.86;436233;1253;139369;-61
2023/06/08 08:54:05;;;;;;;3.90;2.80;;;;;;;29.28;28.19;99585.08;436429;1251;140357;-60
2023/06/08 09:04:11;;;;;;;4.80;2.60;;;;;;;28.73;29.03;99584.67;436407;1253;139296;-59
2023/06/08 09:14:17;;;;;;;4.70;2.50;;;;;;;28.17;29.67;99587.00;437416;1251;139372;-58
2023/06/08 09:24:23;;;;;;;3.80;2.90;;;;;;;27.81;30.38;99579.70;436729;1251;139526;-59
2023/06/08 09:34:30;;;;;;;5.10;2.50;;;;;;;27.42;31.13;99573.95;436406;1253;138430;-60
2023/06/08 09:44:36;;;;;;;4.60;3.10;;;;;;;26.95;31.67;99567.71;436910;1253;138434;-60
2023/06/08 09:54:46;;;;;;;4.90;2.80;;;;;;;26.88;31.97;99570.45;436927;1251;139013;-60
2023/06/08 10:04:55;;;;;;;2.70;2.50;;;;;;;26.81;32.07;99566.82;437117;1253;138905;-60
2023/06/08 10:15:02;;;;;;;4.90;3.50;;;;;;;26.81;32.27;99556.63;436424;1254;139645;-60
2023/06/08 10:25:13;;;;;;;3.80;2.80;;;;;;;26.70;32.62;99544.46;436342;1251;138893;-60
2023/06/08 10:35:19;;;;;;;11.00;3.20;;;;;;;26.38;33.21;99539.70;437016;1251;139079;-60
2023/06/08 10:45:37;;;;;;;5.10;3.00;;;;;;;26.05;33.74;99528.82;436602;1251;139802;-61
2023/06/08 10:55:47;;;;;;;5.90;3.60;;;;;;;25.96;34.16;99524.45;450223;1250;139392;-61
2023/06/08 11:05:53;;;;;;;3.90;2.60;;;;;;;25.84;33.90;99517.98;436650;1253;138921;-61
2023/06/08 11:16:00;;;;;;;6.00;2.70;;;;;;;25.81;33.92;99506.09;436784;1251;139785;-61
2023/06/08 11:26:06;;;;;;;3.70;3.10;;;;;;;25.78;33.97;99506.07;436380;1253;140253;-68
2023/06/08 11:36:12;;;;;;;3.20;2.70;;;;;;;25.84;33.75;99500.44;437535;1253;138976;-64
2023/06/08 11:46:20;;;;;;;6.30;3.00;;;;;;;25.71;32.91;99496.28;435974;1251;138512;-63
2023/06/08 11:56:31;;;;;;;4.30;3.50;;;;;;;25.68;32.71;99481.30;436157;1251;139879;-64
2023/06/08 12:06:37;;;;;;;2.90;2.60;;;;;;;25.81;33.06;99473.86;436777;1253;139336;-63
2023/06/08 12:16:46;;;;;;;3.00;2.70;;;;;;;25.93;32.95;99458.35;436390;1253;139209;-63
2023/06/08 12:26:52;;;;;;;4.40;3.00;;;;;;;25.89;32.39;99458.66;436155;1253;138501;-63
2023/06/08 12:36:58;;;;;;;4.10;2.80;;;;;;;25.80;32.41;99450.83;436317;1253;139495;-64
2023/06/08 12:47:04;;;;;;;3.70;2.70;;;;;;;25.77;32.65;99442.08;436867;1253;138892;-63
2023/06/08 12:57:10;;;;;;;5.00;3.30;;;;;;;25.57;33.01;99433.03;436573;1253;138944;-66
2023/06/08 13:07:16;;;;;;;5.50;2.90;;;;;;;25.65;33.36;99423.51;436486;1253;138806;-62
2023/06/08 13:17:23;;;;;;;3.30;2.60;;;;;;;25.78;33.73;99416.36;436636;1253;138412;-62
2023/06/08 13:27:29;;;;;;;3.60;3.20;;;;;;;25.85;33.62;99420.64;436700;1253;138314;-64
2023/06/08 13:37:35;;;;;;;3.60;2.80;;;;;;;25.93;33.58;99407.59;436603;1253;139216;-64
2023/06/08 13:47:41;;;;;;;3.70;3.10;;;;;;;25.81;34.01;99406.48;436458;1253;139081;-62
2023/06/08 13:57:47;;;;;;;3.00;2.70;;;;;;;25.66;34.33;99405.36;436609;1251;140162;-63
2023/06/08 14:07:53;;;;;;;4.80;2.80;;;;;;;25.68;34.48;99398.74;436540;1254;139971;-64
2023/06/08 14:17:59;;;;;;;4.80;4.10;;;;;;;25.63;34.71;99387.81;436189;1255;140468;-63
2023/06/08 14:28:06;;;;;;;4.00;2.70;;;;;;;25.64;34.76;99381.25;436608;1256;139218;-63
2023/06/08 14:38:12;;;;;;;3.40;3.10;;;;;;;25.72;35.04;99371.63;436214;1256;138632;-63
2023/06/08 14:48:17;;;;;;;3.40;2.70;;;;;;;25.59;35.43;99373.09;436192;1251;139152;-63
2023/06/08 14:58:23;;;;;;;3.80;2.90;;;;;;;25.60;35.12;99370.53;435739;1256;139403;-63
2023/06/08 15:08:29;;;;;;;5.20;3.50;;;;;;;25.75;35.06;99354.55;435859;1256;139086;-63
2023/06/08 15:18:35;;;;;;;2.90;2.60;;;;;;;25.82;35.05;99339.83;436180;1256;138718;-63
2023/06/08 15:28:41;;;;;;;3.10;2.80;;;;;;;25.70;35.26;99341.60;436825;1257;138829;-64
2023/06/08 15:38:46;;;;;;;12.90;3.30;;;;;;;25.43;35.51;99345.18;436308;1257;139595;-63
2023/06/08 15:48:54;;;;;;;4.90;3.20;;;;;;;25.19;36.00;99337.16;436084;1255;138827;-63
2023/06/08 15:59:00;;;;;;;6.30;3.80;;;;;;;24.96;36.11;99334.82;436423;1251;138536;-63
2023/06/08 16:09:06;;;;;;;12.90;6.10;;;;;;;24.69;36.54;99337.13;436141;1256;139307;-62
2023/06/08 16:19:12;;;;;;;10.80;5.70;;;;;;;24.56;36.97;99339.52;436476;1256;140100;-62
2023/06/08 16:29:19;;;;;;;6.70;4.00;;;;;;;24.58;37.26;99338.38;436829;1256;139075;-63
2023/06/08 16:39:25;;;;;;;4.10;2.80;;;;;;;24.54;37.39;99336.45;436509;1254;139903;-63
2023/06/08 16:49:31;;;;;;;4.40;3.20;;;;;;;24.49;37.90;99336.50;436238;1255;139196;-64
2023/06/08 16:59:37;;;;;;;3.00;2.80;;;;;;;24.29;38.69;99339.20;436343;1251;139201;-64
2023/06/08 17:09:43;;;;;;;5.10;2.80;;;;;;;24.02;39.83;99338.02;441764;1251;138578;-64
2023/06/08 17:19:49;;;;;;;3.40;3.00;;;;;;;23.74;40.38;99340.09;436136;1251;138993;-64
2023/06/08 17:29:54;;;;;;;2.40;2.20;;;;;;;23.51;41.03;99345.41;435859;1254;139343;-64
2023/06/08 17:40:05;;;;;;;7.30;3.00;;;;;;;23.27;41.58;99349.63;436337;1254;138529;-63
2023/06/08 17:50:12;;;;;;;4.50;2.90;;;;;;;23.01;42.26;99352.23;436030;1254;139596;-64
2023/06/08 18:00:19;;;;;;;4.30;2.80;;;;;;;22.84;42.80;99356.91;436443;1251;138953;-64
2023/06/08 18:10:25;;;;;;;2.70;2.50;;;;;;;22.52;43.31;99360.64;437131;1254;139131;-63
2023/06/08 18:20:31;;;;;;;4.50;2.40;;;;;;;22.18;43.86;99366.79;436408;1254;138850;-64
2023/06/08 18:30:37;;;;;;;4.20;3.00;;;;;;;21.85;44.39;99365.59;436810;1254;139727;-65
2023/06/08 18:40:42;;;;;;;4.20;2.90;;;;;;;21.54;44.35;99361.95;437250;1251;138764;-64
2023/06/08 18:50:48;;;;;;;3.40;2.40;;;;;;;21.27;44.74;99365.15;436626;1251;138970;-64
2023/06/08 19:00:55;;;;;;;2.60;2.40;;;;;;;20.97;45.14;99365.42;436462;1251;140243;-65
2023/06/08 19:11:01;;;;;;;3.60;2.80;;;;;;;20.66;45.57;99370.95;436555;1253;138520;-62
2023/06/08 19:21:07;;;;;;;3.80;3.00;;;;;;;20.42;46.07;99380.11;436594;1250;140599;-62
2023/06/08 19:31:13;;;;;;;3.40;2.00;;;;;;;20.17;46.75;99387.40;436765;1253;138702;-63
2023/06/08 19:41:20;;;;;;;4.10;3.30;;;;;;;19.92;47.37;99399.86;437492;1251;138752;-64
2023/06/08 19:51:26;;;;;;;3.50;2.70;;;;;;;19.71;48.09;99405.91;437521;1253;141493;-63
2023/06/08 20:01:32;;;;;;;3.90;2.80;;;;;;;19.60;48.57;99406.92;436508;1254;140923;-63
2023/06/08 20:11:38;;;;;;;4.00;3.60;;;;;;;19.26;49.35;99406.13;436191;1251;139085;-61
2023/06/08 20:21:44;;;;;;;4.70;3.50;;;;;;;18.98;50.39;99400.29;436461;1251;140242;-64
2023/06/08 20:31:50;;;;;;;4.00;3.70;;;;;;;18.74;51.33;99406.41;436489;1251;139736;-63
2023/06/08 20:41:56;;;;;;;6.20;5.40;;;;;;;18.54;52.21;99414.24;436407;1251;138969;-64
2023/06/08 20:52:04;;;;;;;8.60;4.30;;;;;;;18.28;53.11;99418.45;436637;1252;139004;-64
2023/06/08 21:02:12;;;;;;;5.30;4.50;;;;;;;18.08;54.13;99412.26;436483;1251;139363;-64
2023/06/08 21:12:18;;;;;;;5.00;4.30;;;;;;;17.92;54.99;99413.24;436798;1253;139666;-63
2023/06/08 21:22:24;;;;;;;6.00;5.20;;;;;;;17.77;55.90;99414.79;436709;1250;138497;-64
2023/06/08 21:32:30;;;;;;;6.40;5.40;;;;;;;17.66;56.54;99422.23;436398;1251;138405;-65
2023/06/08 21:42:37;;;;;;;7.00;5.90;;;;;;;17.50;57.11;99419.89;436473;1253;139165;-64
2023/06/08 21:52:43;;;;;;;7.40;5.80;;;;;;;17.29;58.12;99423.64;436805;1251;139190;-69
2023/06/08 22:02:48;;;;;;;8.90;6.10;;;;;;;17.20;58.88;99425.71;436160;1251;138952;-68
2023/06/08 22:12:55;;;;;;;7.50;6.80;;;;;;;17.06;59.54;99429.51;436467;1253;140672;-68
2023/06/08 22:23:00;;;;;;;7.50;6.50;;;;;;;17.02;60.22;99426.89;437966;1250;139636;-68
2023/06/08 22:33:06;;;;;;;7.10;6.40;;;;;;;17.04;60.79;99422.64;439136;1250;140666;-68
2023/06/08 22:43:12;;;;;;;10.80;7.60;;;;;;;16.96;60.95;99423.58;437182;1253;141252;-68
2023/06/08 22:53:21;;;;;;;7.60;5.90;;;;;;;16.86;61.62;99419.17;437572;1251;143260;-68
2023/06/08 23:03:27;;;;;;;6.80;6.10;;;;;;;16.80;62.03;99416.15;437009;1253;139234;-68
2023/06/08 23:13:37;;;;;;;8.00;6.30;;;;;;;16.67;62.49;99410.77;436662;1251;139609;-67
2023/06/08 23:23:43;;;;;;;7.90;6.50;;;;;;;16.69;62.25;99403.95;436637;1251;139751;-67
2023/06/08 23:33:49;;;;;;;8.20;6.60;;;;;;;16.52;62.47;99402.77;436528;1251;140267;-67
2023/06/08 23:43:55;;;;;;;10.10;6.40;;;;;;;16.25;63.56;99397.49;436562;1251;139670;-67
2023/06/08 23:54:01;;;;;;;7.10;6.40;;;;;;;16.26;64.32;99392.27;436407;1251;140750;-66
